Terminal Aerodrome Forecast
Issued by NWS Boston, MA

Home | Current Version | Previous Version | Text Only | Print | Product List | Glossary On
Versions: 1 2 3 4 5 6 7 8 9 10 11 12 13 14 15 16 17 18 19 20 21 22 23 24
000
FTUS41 KBOX 212320
TAFBOS
TAF
KBOS 212320Z 2200/2306 15007KT P6SM FEW200
     FM220100 25005KT P6SM FEW250
     FM221000 00000KT P6SM SCT200
     FM221700 10007KT P6SM SCT200
     FM230100 17004KT P6SM SCT010=

USA.gov is the U.S. government's official web portal to all federal, state and local government web resources and services.